createdAt,value
2019-02-02T00:00:42.072Z,1.92
2019-02-02T00:03:10.941Z,1.94
2019-02-02T00:05:39.467Z,1.95
2019-02-02T00:08:08.431Z,1.96
2019-02-02T00:10:36.898Z,1.99
2019-02-02T00:13:05.529Z,2.01
2019-02-02T00:15:34.112Z,2.03
2019-02-02T00:18:02.582Z,2.02
2019-02-02T00:20:31.020Z,2.03
2019-02-02T00:22:59.526Z,2.04
2019-02-02T00:25:27.994Z,2.03
2019-02-02T00:27:56.472Z,2.00
2019-02-02T00:30:25.011Z,1.99
2019-02-02T00:32:53.502Z,1.98
2019-02-02T00:35:21.975Z,1.97
2019-02-02T00:37:51.459Z,1.95
2019-02-02T00:40:20.598Z,1.93
2019-02-02T00:42:49.133Z,1.92
2019-02-02T00:45:22.394Z,1.88
2019-02-02T00:47:50.986Z,1.87
2019-02-02T00:50:20.094Z,1.85
2019-02-02T00:52:48.596Z,1.85
2019-02-02T00:55:18.590Z,1.84
2019-02-02T00:57:53.380Z,1.83
2019-02-02T01:00:23.459Z,1.85
2019-02-02T01:02:51.991Z,1.84
2019-02-02T01:05:24.434Z,1.85
2019-02-02T01:07:54.175Z,1.85
2019-02-02T01:10:39.736Z,1.85
2019-02-02T01:13:08.337Z,1.84
2019-02-02T01:15:36.801Z,1.82
2019-02-02T01:18:05.826Z,1.79
2019-02-02T01:20:34.401Z,1.77
2019-02-02T01:23:02.863Z,1.73
2019-02-02T01:25:31.393Z,1.73
2019-02-02T01:28:05.396Z,1.73
2019-02-02T01:30:30.123Z,1.73
2019-02-02T01:32:58.573Z,1.73
2019-02-02T01:35:27.186Z,1.74
2019-02-02T01:37:55.650Z,1.73
2019-02-02T01:40:26.372Z,1.75
2019-02-02T01:42:55.316Z,1.75
2019-02-02T01:45:26.022Z,1.75
2019-02-02T01:47:55.148Z,1.75
2019-02-02T01:50:27.543Z,1.73
2019-02-02T01:52:56.075Z,1.73
2019-02-02T01:55:24.608Z,1.73
2019-02-02T01:57:53.442Z,1.72
2019-02-02T02:00:24.346Z,1.71
2019-02-02T02:02:52.882Z,1.70
2019-02-02T02:05:21.429Z,1.72
2019-02-02T02:07:49.968Z,1.74
2019-02-02T02:10:19.678Z,1.75
2019-02-02T02:12:48.258Z,1.77
2019-02-02T02:15:18.364Z,1.80
2019-02-02T02:17:46.903Z,1.81
2019-02-02T02:20:17.333Z,1.82
2019-02-02T02:22:46.443Z,1.81
2019-02-02T02:25:19.562Z,1.81
2019-02-02T02:27:48.193Z,1.82
2019-02-02T02:30:19.271Z,1.80
2019-02-02T02:32:47.794Z,1.82
2019-02-02T02:35:16.427Z,1.82
2019-02-02T02:37:45.127Z,1.85
2019-02-02T02:40:21.863Z,1.88
2019-02-02T02:42:51.965Z,1.89
2019-02-02T02:45:20.743Z,1.91
2019-02-02T02:47:49.305Z,1.92
2019-02-02T02:50:19.719Z,1.93
2019-02-02T02:52:48.190Z,1.94
2019-02-02T02:55:18.188Z,1.92
2019-02-02T02:57:47.188Z,1.90
2019-02-02T03:00:18.197Z,1.88
2019-02-02T03:02:46.769Z,1.86
2019-02-02T03:05:17.762Z,1.83
2019-02-02T03:07:47.041Z,1.81
2019-02-02T03:10:18.347Z,1.78
2019-02-02T03:12:46.958Z,1.75
2019-02-02T03:15:17.166Z,1.72
2019-02-02T03:17:46.087Z,1.69
2019-02-02T03:20:15.897Z,1.65
2019-02-02T03:22:44.732Z,1.62
2019-02-02T03:25:18.849Z,1.59
2019-02-02T03:27:47.315Z,1.59
2019-02-02T03:30:18.278Z,1.57
2019-02-02T03:32:46.762Z,1.57
2019-02-02T03:35:17.860Z,1.57
2019-02-02T03:37:46.397Z,1.60
2019-02-02T03:40:17.040Z,1.60
2019-02-02T03:42:45.590Z,1.62
2019-02-02T03:45:16.763Z,1.62
2019-02-02T03:47:45.275Z,1.61
2019-02-02T03:50:14.146Z,1.59
2019-02-02T03:52:42.595Z,1.58
2019-02-02T03:55:13.527Z,1.56
2019-02-02T03:57:42.083Z,1.55
2019-02-02T04:00:16.023Z,1.55
2019-02-02T04:02:44.618Z,1.54
2019-02-02T04:05:15.732Z,1.53
2019-02-02T04:07:44.197Z,1.51
2019-02-02T04:10:14.162Z,1.49
2019-02-02T04:12:42.637Z,1.46
2019-02-02T04:15:13.872Z,1.44
2019-02-02T04:17:42.341Z,1.43
2019-02-02T04:20:21.874Z,1.42
2019-02-02T04:22:50.731Z,1.41
2019-02-02T04:25:21.807Z,1.41
2019-02-02T04:27:50.343Z,1.41
2019-02-02T04:30:21.548Z,1.43
2019-02-02T04:32:50.012Z,1.45
2019-02-02T04:35:18.549Z,1.47
2019-02-02T04:37:47.069Z,1.49
2019-02-02T04:40:16.059Z,1.50
2019-02-02T04:42:44.664Z,1.50
2019-02-02T04:45:15.679Z,1.52
2019-02-02T04:47:44.661Z,1.53
2019-02-02T04:50:15.456Z,1.52
2019-02-02T04:52:44.009Z,1.51
2019-02-02T04:55:15.233Z,1.50
2019-02-02T04:57:43.672Z,1.49
2019-02-02T05:00:15.302Z,1.48
2019-02-02T05:02:43.769Z,1.48
2019-02-02T05:05:14.572Z,1.49
2019-02-02T05:07:43.068Z,1.49
2019-02-02T05:10:17.844Z,1.50
2019-02-02T05:12:46.319Z,1.51
2019-02-02T05:15:15.173Z,1.51
2019-02-02T05:17:43.637Z,1.54
2019-02-02T05:20:17.839Z,1.55
2019-02-02T05:22:46.502Z,1.54
2019-02-02T05:25:15.027Z,1.56
2019-02-02T05:27:43.551Z,1.55
2019-02-02T05:30:23.792Z,1.56
2019-02-02T05:32:52.269Z,1.53
2019-02-02T05:35:20.791Z,1.48
2019-02-02T05:37:49.291Z,1.46
2019-02-02T05:40:19.801Z,1.43
2019-02-02T05:42:48.398Z,1.42
2019-02-02T05:45:18.832Z,1.42
2019-02-02T05:47:47.472Z,1.40
2019-02-02T05:50:18.414Z,1.36
2019-02-02T05:52:46.973Z,1.35
2019-02-02T05:55:17.382Z,1.31
2019-02-02T05:57:45.918Z,1.29
2019-02-02T06:00:18.880Z,1.28
2019-02-02T06:02:47.408Z,1.25
2019-02-02T06:05:15.871Z,1.24
2019-02-02T06:07:44.388Z,1.23
2019-02-02T06:10:15.762Z,1.22
2019-02-02T06:12:44.282Z,1.22
2019-02-02T06:15:13.547Z,1.24
2019-02-02T06:17:42.093Z,1.25
2019-02-02T06:20:18.052Z,1.26
2019-02-02T06:22:46.523Z,1.27
2019-02-02T06:25:15.840Z,1.28
2019-02-02T06:27:44.483Z,1.28
2019-02-02T06:30:21.237Z,1.30
2019-02-02T06:32:49.707Z,1.32
2019-02-02T06:35:18.913Z,1.33
2019-02-02T06:37:47.432Z,1.35
2019-02-02T06:40:18.539Z,1.35
2019-02-02T06:42:47.078Z,1.35
2019-02-02T06:45:24.685Z,1.34
2019-02-02T06:47:53.283Z,1.34
2019-02-02T06:50:21.972Z,1.34
2019-02-02T06:52:51.593Z,1.34
2019-02-02T06:55:20.171Z,1.35
2019-02-02T06:57:48.605Z,1.38
2019-02-02T07:00:22.076Z,1.38
2019-02-02T07:02:50.647Z,1.39
2019-02-02T07:05:19.133Z,1.40
2019-02-02T07:07:47.636Z,1.40
2019-02-02T07:10:18.931Z,1.42
2019-02-02T07:12:47.394Z,1.44
2019-02-02T07:15:18.055Z,1.47
2019-02-02T07:17:46.511Z,1.49
2019-02-02T07:20:15.445Z,1.50
2019-02-02T07:22:44.012Z,1.53
2019-02-02T07:25:12.565Z,1.56
2019-02-02T07:27:41.025Z,1.58
2019-02-02T07:30:12.787Z,1.61
2019-02-02T07:32:41.321Z,1.62
2019-02-02T07:35:11.432Z,1.66
2019-02-02T07:37:40.004Z,1.70
2019-02-02T07:40:11.180Z,1.75
2019-02-02T07:42:39.648Z,1.77
2019-02-02T07:45:11.550Z,1.81
2019-02-02T07:47:40.067Z,1.82
2019-02-02T07:50:11.777Z,1.83
2019-02-02T07:52:40.288Z,1.83
2019-02-02T07:55:11.522Z,1.82
2019-02-02T07:57:39.982Z,1.80
2019-02-02T08:00:40.468Z,1.80
2019-02-02T08:03:03.181Z,1.81
2019-02-02T08:05:31.721Z,1.82
2019-02-02T08:08:00.278Z,1.82
2019-02-02T08:10:28.725Z,1.82
2019-02-02T08:12:57.199Z,1.83
2019-02-02T08:15:33.401Z,1.82
2019-02-02T08:18:01.873Z,1.81
2019-02-02T08:20:30.327Z,1.82
2019-02-02T08:22:58.816Z,1.83
2019-02-02T08:25:27.264Z,1.83
2019-02-02T08:27:55.968Z,1.84
2019-02-02T08:30:35.414Z,1.85
2019-02-02T08:33:02.550Z,1.86
2019-02-02T08:35:30.999Z,1.87
2019-02-02T08:37:59.565Z,1.89
2019-02-02T08:40:28.025Z,1.92
2019-02-02T08:42:56.498Z,1.93
2019-02-02T08:45:24.997Z,1.95
2019-02-02T08:47:53.458Z,1.97
2019-02-02T08:50:25.071Z,1.99
2019-02-02T08:52:53.593Z,2.01
2019-02-02T08:55:22.167Z,2.03
2019-02-02T08:57:50.816Z,2.05
2019-02-02T09:00:22.306Z,2.09
2019-02-02T09:02:51.116Z,2.10
2019-02-02T09:05:21.522Z,2.12
2019-02-02T09:07:50.166Z,2.15
2019-02-02T09:10:24.031Z,2.19
2019-02-02T09:12:52.506Z,2.21
2019-02-02T09:15:21.151Z,2.21
2019-02-02T09:17:49.619Z,2.23
2019-02-02T09:20:18.083Z,2.25
2019-02-02T09:22:47.125Z,2.28
2019-02-02T09:25:19.348Z,2.31
2019-02-02T09:27:47.888Z,2.33
2019-02-02T09:30:22.141Z,2.36
2019-02-02T09:32:50.608Z,2.40
2019-02-02T09:35:19.132Z,2.43
2019-02-02T09:37:47.669Z,2.45
2019-02-02T09:40:18.254Z,2.47
2019-02-02T09:42:47.102Z,2.52
2019-02-02T09:45:17.540Z,2.57
2019-02-02T09:47:46.198Z,2.62
2019-02-02T09:50:19.946Z,2.63
2019-02-02T09:52:48.428Z,2.64
2019-02-02T09:55:20.399Z,2.64
2019-02-02T09:57:49.414Z,2.67
2019-02-02T10:00:23.337Z,2.72
2019-02-02T10:02:51.808Z,2.75
2019-02-02T10:05:20.489Z,2.73
2019-02-02T10:07:49.172Z,2.77
2019-02-02T10:10:22.571Z,2.78
2019-02-02T10:12:51.077Z,2.80
2019-02-02T10:15:19.901Z,2.79
2019-02-02T10:17:49.857Z,2.78
2019-02-02T10:20:21.471Z,2.80
2019-02-02T10:22:49.948Z,2.83
2019-02-02T10:25:24.389Z,2.84
2019-02-02T10:27:53.001Z,2.85
2019-02-02T10:30:33.268Z,2.88
2019-02-02T10:33:02.027Z,2.93
2019-02-02T10:35:30.484Z,2.93
2019-02-02T10:37:58.958Z,2.92
2019-02-02T10:40:29.880Z,2.88
2019-02-02T10:42:57.701Z,2.89
2019-02-02T10:45:26.329Z,2.89
2019-02-02T10:47:54.841Z,2.89
2019-02-02T10:50:27.189Z,2.83
2019-02-02T10:52:55.645Z,2.86
2019-02-02T10:55:26.854Z,2.85
2019-02-02T10:57:55.304Z,2.81
2019-02-02T11:00:26.821Z,2.81
2019-02-02T11:02:55.382Z,2.81
2019-02-02T11:05:23.955Z,2.81
2019-02-02T11:07:54.512Z,2.79
2019-02-02T11:10:24.700Z,2.78
2019-02-02T11:12:53.920Z,2.76
2019-02-02T11:15:23.565Z,2.76
2019-02-02T11:17:52.182Z,2.78
2019-02-02T11:20:31.481Z,2.74
2019-02-02T11:23:00.353Z,2.75
2019-02-02T11:25:29.002Z,2.76
2019-02-02T11:27:57.467Z,2.75
2019-02-02T11:30:26.892Z,2.75
2019-02-02T11:32:55.397Z,2.75
2019-02-02T11:35:23.876Z,2.75
2019-02-02T11:37:52.378Z,2.74
2019-02-02T11:40:26.448Z,2.75
2019-02-02T11:42:55.310Z,2.71
2019-02-02T11:45:23.876Z,2.71
2019-02-02T11:47:52.439Z,2.73
2019-02-02T11:50:21.844Z,2.74
2019-02-02T11:52:50.415Z,2.72
2019-02-02T11:55:21.271Z,2.73
2019-02-02T11:57:50.183Z,2.71
2019-02-02T12:00:26.875Z,2.71
2019-02-02T12:02:55.483Z,2.72
2019-02-02T12:05:24.004Z,2.72
2019-02-02T12:07:52.499Z,2.72
2019-02-02T12:10:26.302Z,2.72
2019-02-02T12:12:54.768Z,2.70
2019-02-02T12:15:23.422Z,2.66
2019-02-02T12:17:51.880Z,2.69
2019-02-02T12:20:21.972Z,2.69
2019-02-02T12:22:50.557Z,2.64
2019-02-02T12:25:19.005Z,2.66
2019-02-02T12:27:47.533Z,2.66
2019-02-02T12:30:28.140Z,2.67
2019-02-02T12:32:56.599Z,2.67
2019-02-02T12:35:26.813Z,2.68
2019-02-02T12:37:55.452Z,2.67
2019-02-02T12:40:26.062Z,2.69
2019-02-02T12:42:54.559Z,2.69
2019-02-02T12:45:28.625Z,2.71
2019-02-02T12:47:57.097Z,2.70
2019-02-02T12:50:25.562Z,2.73
2019-02-02T12:52:54.067Z,2.73
2019-02-02T12:55:22.612Z,2.74
2019-02-02T12:57:51.078Z,2.70
2019-02-02T13:00:22.398Z,2.70
2019-02-02T13:02:50.862Z,2.67
2019-02-02T13:05:21.844Z,2.66
2019-02-02T13:07:50.431Z,2.66
2019-02-02T13:10:29.548Z,2.65
2019-02-02T13:12:58.105Z,2.64
2019-02-02T13:15:26.635Z,2.64
2019-02-02T13:17:55.171Z,2.62
2019-02-02T13:20:23.682Z,2.62
2019-02-02T13:22:52.174Z,2.63
2019-02-02T13:25:26.162Z,2.63
2019-02-02T13:27:54.739Z,2.63
2019-02-02T13:30:28.679Z,2.61
2019-02-02T13:32:57.472Z,2.60
2019-02-02T13:35:27.048Z,2.55
2019-02-02T13:37:55.594Z,2.55
2019-02-02T13:40:25.020Z,2.57
2019-02-02T13:42:53.653Z,2.59
2019-02-02T13:45:23.494Z,2.62
2019-02-02T13:47:52.283Z,2.65
2019-02-02T13:50:21.384Z,2.67
2019-02-02T13:52:51.348Z,2.68
2019-02-02T13:55:19.959Z,2.68
2019-02-02T13:57:48.485Z,2.68
2019-02-02T14:00:26.040Z,2.69
2019-02-02T14:03:02.083Z,2.67
2019-02-02T14:05:24.732Z,2.72
2019-02-02T14:07:53.902Z,2.72
2019-02-02T14:10:27.568Z,2.73
2019-02-02T14:12:56.198Z,2.72
2019-02-02T14:15:24.671Z,2.71
2019-02-02T14:17:53.309Z,2.71
2019-02-02T14:20:21.845Z,2.71
2019-02-02T14:22:50.387Z,2.69
2019-02-02T14:25:19.413Z,2.65
2019-02-02T14:27:47.902Z,2.63
2019-02-02T14:30:24.305Z,2.63
2019-02-02T14:32:54.946Z,2.59
2019-02-02T14:35:25.080Z,2.63
2019-02-02T14:37:53.596Z,2.61
2019-02-02T14:40:22.120Z,2.60
2019-02-02T14:42:50.592Z,2.58
2019-02-02T14:45:26.768Z,2.58
2019-02-02T14:47:55.863Z,2.53
2019-02-02T14:50:24.353Z,2.55
2019-02-02T14:52:53.995Z,2.52
2019-02-02T14:55:24.723Z,2.50
2019-02-02T14:57:53.263Z,2.47
2019-02-02T15:00:26.749Z,2.46
2019-02-02T15:02:55.285Z,2.45
2019-02-02T15:05:23.816Z,2.45
2019-02-02T15:07:52.377Z,2.43
2019-02-02T15:10:22.136Z,2.42
2019-02-02T15:12:50.855Z,2.40
2019-02-02T15:15:19.370Z,2.37
2019-02-02T15:17:47.825Z,2.33
2019-02-02T15:20:22.439Z,2.34
2019-02-02T15:22:51.270Z,2.33
2019-02-02T15:25:19.734Z,2.31
2019-02-02T15:27:48.191Z,2.28
2019-02-02T15:30:22.127Z,2.26
2019-02-02T15:32:50.754Z,2.23
2019-02-02T15:35:19.217Z,2.21
2019-02-02T15:37:47.718Z,2.19
2019-02-02T15:40:18.012Z,2.17
2019-02-02T15:42:46.652Z,2.16
2019-02-02T15:45:17.405Z,2.13
2019-02-02T15:47:45.851Z,2.13
2019-02-02T15:50:16.037Z,2.11
2019-02-02T15:52:44.873Z,2.12
2019-02-02T15:55:16.322Z,2.10
2019-02-02T15:57:44.789Z,2.09
2019-02-02T16:00:18.772Z,2.07
2019-02-02T16:02:47.247Z,2.07
2019-02-02T16:05:17.450Z,2.06
2019-02-02T16:07:45.955Z,2.04
2019-02-02T16:10:20.538Z,2.04
2019-02-02T16:12:50.916Z,2.03
2019-02-02T16:15:19.359Z,2.03
2019-02-02T16:17:47.888Z,2.04
2019-02-02T16:20:18.829Z,2.04
2019-02-02T16:22:47.528Z,2.02
2019-02-02T16:25:16.053Z,2.01
2019-02-02T16:27:44.572Z,1.99
2019-02-02T16:30:29.560Z,2.00
2019-02-02T16:32:58.061Z,1.99
2019-02-02T16:35:26.524Z,1.98
2019-02-02T16:37:55.060Z,1.98
2019-02-02T16:40:28.632Z,1.97
2019-02-02T16:42:57.274Z,1.96
2019-02-02T16:45:28.946Z,1.96
2019-02-02T16:47:57.451Z,1.94
2019-02-02T16:50:25.966Z,1.94
2019-02-02T16:52:54.570Z,1.93
2019-02-02T16:55:23.125Z,1.92
2019-02-02T16:57:51.595Z,1.93
2019-02-02T17:00:22.757Z,1.93
2019-02-02T17:02:51.326Z,1.92
2019-02-02T17:05:19.863Z,1.92
2019-02-02T17:07:48.310Z,1.92
2019-02-02T17:10:28.361Z,1.92
2019-02-02T17:12:56.818Z,1.91
2019-02-02T17:15:25.661Z,1.90
2019-02-02T17:17:54.160Z,1.91
2019-02-02T17:20:28.116Z,1.90
2019-02-02T17:22:56.597Z,1.91
2019-02-02T17:25:25.160Z,1.90
2019-02-02T17:27:53.632Z,1.90
2019-02-02T17:30:26.421Z,1.90
2019-02-02T17:33:06.188Z,1.89
2019-02-02T17:35:34.649Z,1.90
2019-02-02T17:38:03.115Z,1.89
2019-02-02T17:40:31.615Z,1.89
2019-02-02T17:43:00.067Z,1.89
2019-02-02T17:45:28.614Z,1.90
2019-02-02T17:47:57.224Z,1.91
2019-02-02T17:50:29.989Z,1.91
2019-02-02T17:52:58.453Z,1.92
2019-02-02T17:55:27.032Z,1.93
2019-02-02T17:57:55.482Z,1.92
2019-02-02T18:00:31.369Z,1.95
2019-02-02T18:02:59.893Z,1.94
2019-02-02T18:05:28.347Z,1.96
2019-02-02T18:07:56.802Z,1.95
2019-02-02T18:10:25.278Z,1.94
2019-02-02T18:12:53.740Z,1.94
2019-02-02T18:15:22.202Z,1.93
2019-02-02T18:17:51.053Z,1.91
2019-02-02T18:20:19.512Z,1.91
2019-02-02T18:22:47.972Z,1.91
2019-02-02T18:25:17.510Z,1.90
2019-02-02T18:27:46.045Z,1.90
2019-02-02T18:30:22.671Z,1.91
2019-02-02T18:32:51.200Z,1.94
2019-02-02T18:35:19.663Z,1.97
2019-02-02T18:37:48.240Z,1.98
2019-02-02T18:40:18.851Z,2.01
2019-02-02T18:42:47.363Z,2.01
2019-02-02T18:45:24.293Z,2.01
2019-02-02T18:47:52.816Z,2.00
2019-02-02T18:50:21.292Z,2.00
2019-02-02T18:52:51.622Z,1.98
2019-02-02T18:55:31.750Z,1.95
2019-02-02T18:58:00.324Z,1.94
2019-02-02T19:00:28.867Z,1.92
2019-02-02T19:02:57.509Z,1.92
2019-02-02T19:05:28.962Z,1.95
2019-02-02T19:07:56.250Z,1.96
2019-02-02T19:10:30.543Z,1.95
2019-02-02T19:12:59.233Z,1.96
2019-02-02T19:15:27.699Z,1.94
2019-02-02T19:17:56.203Z,1.94
2019-02-02T19:20:24.653Z,1.93
2019-02-02T19:22:53.116Z,1.93
2019-02-02T19:25:21.601Z,1.92
2019-02-02T19:27:50.062Z,1.91
2019-02-02T19:30:27.370Z,1.91
2019-02-02T19:32:55.827Z,1.91
2019-02-02T19:35:24.340Z,1.90
2019-02-02T19:37:52.834Z,1.89
2019-02-02T19:40:21.295Z,1.89
2019-02-02T19:42:49.760Z,1.87
2019-02-02T19:45:26.042Z,1.87
2019-02-02T19:47:54.581Z,1.88
2019-02-02T19:50:25.056Z,1.89
2019-02-02T19:52:53.711Z,1.89
2019-02-02T19:55:22.168Z,1.90
2019-02-02T19:57:50.712Z,1.91
2019-02-02T20:00:24.602Z,1.90
2019-02-02T20:02:53.409Z,1.92
2019-02-02T20:05:28.648Z,1.93
2019-02-02T20:07:52.223Z,1.94
2019-02-02T20:10:20.767Z,1.94
2019-02-02T20:12:49.234Z,1.96
2019-02-02T20:15:25.656Z,1.97
2019-02-02T20:17:54.134Z,1.99
2019-02-02T20:20:27.981Z,1.98
2019-02-02T20:22:57.359Z,1.99
2019-02-02T20:25:26.049Z,1.97
2019-02-02T20:27:54.653Z,1.98
2019-02-02T20:30:25.844Z,1.97
2019-02-02T20:32:54.337Z,1.97
2019-02-02T20:35:22.935Z,1.97
2019-02-02T20:37:51.739Z,1.97
2019-02-02T20:40:25.086Z,1.97
2019-02-02T20:42:53.783Z,1.95
2019-02-02T20:45:28.292Z,1.94
2019-02-02T20:47:56.751Z,1.94
2019-02-02T20:50:25.205Z,1.95
2019-02-02T20:52:53.701Z,1.95
2019-02-02T20:55:24.699Z,1.95
2019-02-02T20:57:53.509Z,1.95
2019-02-02T21:00:24.258Z,1.97
2019-02-02T21:02:52.717Z,1.97
2019-02-02T21:05:21.376Z,1.97
2019-02-02T21:07:49.883Z,1.99
2019-02-02T21:10:20.957Z,2.00
2019-02-02T21:12:49.563Z,2.01
2019-02-02T21:15:18.180Z,2.02
2019-02-02T21:17:46.872Z,2.02
2019-02-02T21:20:18.180Z,2.04
2019-02-02T21:22:46.983Z,2.05
2019-02-02T21:25:16.275Z,2.06
2019-02-02T21:27:44.791Z,2.08
2019-02-02T21:30:16.648Z,2.08
2019-02-02T21:32:45.161Z,2.10
2019-02-02T21:35:13.726Z,2.11
2019-02-02T21:37:42.183Z,2.12
2019-02-02T21:40:13.878Z,2.11
2019-02-02T21:42:42.516Z,2.12
2019-02-02T21:45:13.224Z,2.12
2019-02-02T21:47:42.034Z,2.14
2019-02-02T21:50:14.065Z,2.14
2019-02-02T21:52:42.591Z,2.14
2019-02-02T21:55:17.204Z,2.14
2019-02-02T21:57:45.769Z,2.14
2019-02-02T22:00:20.114Z,2.15
2019-02-02T22:02:48.668Z,2.16
2019-02-02T22:05:17.284Z,2.15
2019-02-02T22:07:47.463Z,2.18
2019-02-02T22:10:16.610Z,2.17
2019-02-02T22:12:45.575Z,2.17
2019-02-02T22:15:18.296Z,2.18
2019-02-02T22:17:46.938Z,2.19
2019-02-02T22:20:17.314Z,2.19
2019-02-02T22:22:45.951Z,2.19
2019-02-02T22:25:22.090Z,2.19
2019-02-02T22:27:50.540Z,2.21
2019-02-02T22:30:21.390Z,2.21
2019-02-02T22:32:49.896Z,2.22
2019-02-02T22:35:18.508Z,2.22
2019-02-02T22:37:46.964Z,2.23
2019-02-02T22:40:24.541Z,2.22
2019-02-02T22:42:54.097Z,2.22
2019-02-02T22:45:23.092Z,2.22
2019-02-02T22:47:51.952Z,2.22
2019-02-02T22:50:22.141Z,2.21
2019-02-02T22:52:50.769Z,2.21
2019-02-02T22:55:20.828Z,2.19
2019-02-02T22:57:49.283Z,2.18
2019-02-02T23:00:43.526Z,2.18
2019-02-02T23:03:17.921Z,2.18
2019-02-02T23:06:12.368Z,2.17
2019-02-02T23:09:05.196Z,2.16
2019-02-02T23:11:48.853Z,2.16
2019-02-02T23:14:26.900Z,2.12
2019-02-02T23:16:55.369Z,2.12
2019-02-02T23:19:23.839Z,2.12
2019-02-02T23:21:52.309Z,2.11
2019-02-02T23:24:22.680Z,2.11
2019-02-02T23:26:51.411Z,2.12
2019-02-02T23:29:19.885Z,2.12
2019-02-02T23:31:48.372Z,2.11
2019-02-02T23:34:16.843Z,2.10
2019-02-02T23:36:51.796Z,2.10
2019-02-02T23:39:15.538Z,2.10
2019-02-02T23:41:44.009Z,2.11
2019-02-02T23:44:12.469Z,2.11
2019-02-02T23:46:40.967Z,2.13
2019-02-02T23:49:09.432Z,2.13
2019-02-02T23:51:37.896Z,2.14
2019-02-02T23:54:06.459Z,2.14
2019-02-02T23:56:35.006Z,2.14
2019-02-02T23:59:03.617Z,2.14
